createdAt,value
2022-08-23T00:00:41.700Z,1012.38
2022-08-23T00:01:40.668Z,1012.35
2022-08-23T00:02:40.685Z,1012.34
2022-08-23T00:03:40.660Z,1012.39
2022-08-23T00:04:40.628Z,1012.35
2022-08-23T00:05:41.639Z,1012.37
2022-08-23T00:06:40.609Z,1012.39
2022-08-23T00:07:40.616Z,1012.36
2022-08-23T00:08:40.579Z,1012.39
2022-08-23T00:09:41.571Z,1012.31
2022-08-23T00:10:40.692Z,1012.36
2022-08-23T00:11:40.586Z,1012.35
2022-08-23T00:12:40.541Z,1012.38
2022-08-23T00:13:48.033Z,1012.37
2022-08-23T00:14:41.568Z,1012.33
2022-08-23T00:15:40.522Z,1012.28
2022-08-23T00:16:40.493Z,1012.26
2022-08-23T00:17:40.481Z,1012.27
2022-08-23T00:18:40.469Z,1012.28
2022-08-23T00:19:40.462Z,1012.29
2022-08-23T00:20:40.467Z,1012.30
2022-08-23T00:21:40.439Z,1012.23
2022-08-23T00:22:40.424Z,1012.26
2022-08-23T00:23:40.413Z,1012.25
2022-08-23T00:24:41.004Z,1012.24
2022-08-23T00:25:40.410Z,1012.25
2022-08-23T00:26:40.381Z,1012.30
2022-08-23T00:27:40.366Z,1012.29
2022-08-23T00:28:40.356Z,1012.32
2022-08-23T00:29:40.353Z,1012.29
2022-08-23T00:30:40.358Z,1012.26
2022-08-23T00:31:40.368Z,1012.24
2022-08-23T00:32:40.314Z,1012.24
2022-08-23T00:33:40.303Z,1012.24
2022-08-23T00:34:40.293Z,1012.21
2022-08-23T00:35:40.282Z,1012.25
2022-08-23T00:36:40.288Z,1012.20
2022-08-23T00:37:40.263Z,1012.22
2022-08-23T00:38:40.656Z,1012.19
2022-08-23T00:39:40.302Z,1012.20
2022-08-23T00:40:40.240Z,1012.17
2022-08-23T00:41:40.236Z,1012.13
2022-08-23T00:42:40.523Z,1012.17
2022-08-23T00:43:40.192Z,1012.17
2022-08-23T00:44:40.179Z,1012.13
2022-08-23T00:45:40.217Z,1012.13
2022-08-23T00:46:40.562Z,1012.11
2022-08-23T00:47:40.157Z,1012.06
2022-08-23T00:48:40.132Z,1012.10
2022-08-23T00:49:40.126Z,1012.12
2022-08-23T00:50:40.112Z,1012.13
2022-08-23T00:51:52.683Z,1012.10
2022-08-23T00:52:41.087Z,1012.16
2022-08-23T00:53:40.081Z,1012.11
2022-08-23T00:54:40.075Z,1012.11
2022-08-23T00:55:40.057Z,1012.14
2022-08-23T00:56:40.061Z,1012.15
2022-08-23T00:57:40.046Z,1012.10
2022-08-23T00:58:40.020Z,1012.08
2022-08-23T00:59:40.009Z,1012.09
2022-08-23T01:00:39.999Z,1012.09
2022-08-23T01:01:40.145Z,1012.05
2022-08-23T01:02:39.980Z,1012.02
2022-08-23T01:03:40.232Z,1012.02
2022-08-23T01:04:39.958Z,1012.03
2022-08-23T01:05:39.963Z,1012.03
2022-08-23T01:06:39.989Z,1012.06
2022-08-23T01:07:39.953Z,1012.02
2022-08-23T01:08:39.946Z,1012.08
2022-08-23T01:09:39.912Z,1012.05
2022-08-23T01:10:39.912Z,1012.04
2022-08-23T01:11:39.881Z,1012.02
2022-08-23T01:12:39.887Z,1012.03
2022-08-23T01:13:39.855Z,1012.03
2022-08-23T01:14:39.858Z,1012.04
2022-08-23T01:15:39.832Z,1012.01
2022-08-23T01:16:39.841Z,1012.02
2022-08-23T01:17:39.830Z,1012.02
2022-08-23T01:18:39.796Z,1012.05
2022-08-23T01:19:39.792Z,1012.09
2022-08-23T01:20:40.395Z,1012.08
2022-08-23T01:21:41.329Z,1012.07
2022-08-23T01:22:39.771Z,1012.09
2022-08-23T01:23:39.742Z,1012.05
2022-08-23T01:25:06.233Z,1012.09
2022-08-23T01:25:40.726Z,1012.13
2022-08-23T01:26:39.710Z,1012.10
2022-08-23T01:27:39.718Z,1012.14
2022-08-23T01:28:39.691Z,1012.18
2022-08-23T01:29:39.678Z,1012.13
2022-08-23T01:30:39.665Z,1012.16
2022-08-23T01:31:39.879Z,1012.13
2022-08-23T01:32:39.659Z,1012.14
2022-08-23T01:33:39.626Z,1012.14
2022-08-23T01:34:44.706Z,1012.12
2022-08-23T01:35:41.448Z,1012.14
2022-08-23T01:36:39.600Z,1012.13
2022-08-23T01:37:39.608Z,1012.13
2022-08-23T01:38:39.575Z,1012.11
2022-08-23T01:39:39.585Z,1012.14
2022-08-23T01:40:39.552Z,1012.10
2022-08-23T01:41:39.573Z,1012.10
2022-08-23T01:42:39.530Z,1012.11
2022-08-23T01:43:39.566Z,1012.14
2022-08-23T01:44:39.527Z,1012.13
2022-08-23T01:45:39.762Z,1012.15
2022-08-23T01:46:39.995Z,1012.18
2022-08-23T01:47:39.477Z,1012.16
2022-08-23T01:48:39.469Z,1012.14
2022-08-23T01:49:39.453Z,1012.14
2022-08-23T01:50:39.580Z,1012.14
2022-08-23T01:51:39.431Z,1012.12
2022-08-23T01:52:39.454Z,1012.10
2022-08-23T01:53:40.412Z,1012.13
2022-08-23T01:54:39.415Z,1012.17
2022-08-23T01:55:39.408Z,1012.12
2022-08-23T01:56:39.535Z,1012.16
2022-08-23T01:57:39.366Z,1012.19
2022-08-23T01:58:39.356Z,1012.16
2022-08-23T01:59:39.362Z,1012.18
2022-08-23T02:00:39.330Z,1012.17
2022-08-23T02:01:39.381Z,1012.18
2022-08-23T02:02:39.311Z,1012.15
2022-08-23T02:03:39.331Z,1012.14
2022-08-23T02:04:39.288Z,1012.15
2022-08-23T02:05:39.470Z,1012.14
2022-08-23T02:06:39.264Z,1012.12
2022-08-23T02:07:39.272Z,1012.07
2022-08-23T02:08:39.241Z,1012.08
2022-08-23T02:09:39.415Z,1012.07
2022-08-23T02:10:39.222Z,1012.07
2022-08-23T02:11:39.221Z,1012.05
2022-08-23T02:12:39.204Z,1012.03
2022-08-23T02:13:39.216Z,1012.04
2022-08-23T02:14:40.663Z,1012.05
2022-08-23T02:15:39.167Z,1012.11
2022-08-23T02:16:39.148Z,1012.08
2022-08-23T02:17:39.140Z,1012.06
2022-08-23T02:18:39.157Z,1012.10
2022-08-23T02:19:39.122Z,1012.07
2022-08-23T02:20:39.109Z,1012.09
2022-08-23T02:21:39.103Z,1012.07
2022-08-23T02:22:39.083Z,1012.09
2022-08-23T02:23:39.091Z,1012.07
2022-08-23T02:24:39.262Z,1012.04
2022-08-23T02:25:39.060Z,1012.02
2022-08-23T02:26:39.042Z,1012.02
2022-08-23T02:27:39.032Z,1012.03
2022-08-23T02:28:40.015Z,1012.02
2022-08-23T02:29:39.432Z,1012.02
2022-08-23T02:30:38.995Z,1012.00
2022-08-23T02:31:38.982Z,1012.02
2022-08-23T02:32:38.975Z,1012.00
2022-08-23T02:33:38.959Z,1011.94
2022-08-23T02:34:38.977Z,1011.94
2022-08-23T02:35:38.941Z,1011.94
2022-08-23T02:36:38.928Z,1011.95
2022-08-23T02:37:38.923Z,1011.93
2022-08-23T02:38:38.906Z,1011.94
2022-08-23T02:39:39.501Z,1011.89
2022-08-23T02:40:38.886Z,1011.92
2022-08-23T02:41:38.873Z,1011.88
2022-08-23T02:42:38.860Z,1011.88
2022-08-23T02:43:41.072Z,1011.89
2022-08-23T02:44:38.832Z,1011.91
2022-08-23T02:45:38.863Z,1011.92
2022-08-23T02:46:38.818Z,1011.90
2022-08-23T02:47:38.805Z,1011.94
2022-08-23T02:48:38.794Z,1011.92
2022-08-23T02:49:38.805Z,1011.99
2022-08-23T02:50:38.773Z,1011.97
2022-08-23T02:51:38.763Z,1012.02
2022-08-23T02:52:38.754Z,1012.06
2022-08-23T02:53:38.740Z,1012.08
2022-08-23T02:54:38.746Z,1012.08
2022-08-23T02:55:38.715Z,1012.11
2022-08-23T02:56:38.839Z,1012.10
2022-08-23T02:57:38.696Z,1012.13
2022-08-23T02:58:38.689Z,1012.12
2022-08-23T02:59:38.689Z,1012.14
2022-08-23T03:00:38.661Z,1012.17
2022-08-23T03:01:38.647Z,1012.13
2022-08-23T03:02:38.693Z,1012.17
2022-08-23T03:03:38.644Z,1012.12
2022-08-23T03:04:38.615Z,1012.16
2022-08-23T03:05:38.602Z,1012.13
2022-08-23T03:06:38.593Z,1012.17
2022-08-23T03:07:38.582Z,1012.16
2022-08-23T03:08:38.586Z,1012.12
2022-08-23T03:09:38.557Z,1012.12
2022-08-23T03:10:38.563Z,1012.12
2022-08-23T03:11:38.538Z,1012.15
2022-08-23T03:12:38.531Z,1012.11
2022-08-23T03:13:38.552Z,1012.15
2022-08-23T03:14:38.499Z,1012.17
2022-08-23T03:15:38.491Z,1012.18
2022-08-23T03:16:38.477Z,1012.20
2022-08-23T03:17:38.692Z,1012.24
2022-08-23T03:18:38.458Z,1012.27
2022-08-23T03:19:38.478Z,1012.26
2022-08-23T03:20:38.435Z,1012.26
2022-08-23T03:21:38.422Z,1012.31
2022-08-23T03:22:38.410Z,1012.32
2022-08-23T03:23:38.396Z,1012.31
2022-08-23T03:24:38.411Z,1012.30
2022-08-23T03:25:38.386Z,1012.32
2022-08-23T03:26:38.362Z,1012.33
2022-08-23T03:27:44.604Z,1012.34
2022-08-23T03:28:39.340Z,1012.29
2022-08-23T03:29:38.375Z,1012.33
2022-08-23T03:30:38.454Z,1012.30
2022-08-23T03:31:38.306Z,1012.30
2022-08-23T03:32:38.303Z,1012.34
2022-08-23T03:33:46.013Z,1012.31
2022-08-23T03:34:38.273Z,1012.31
2022-08-23T03:35:38.274Z,1012.29
2022-08-23T03:36:38.557Z,1012.32
2022-08-23T03:37:38.237Z,1012.30
2022-08-23T03:38:38.223Z,1012.31
2022-08-23T03:39:38.214Z,1012.31
2022-08-23T03:40:38.214Z,1012.36
2022-08-23T03:41:38.197Z,1012.38
2022-08-23T03:42:38.185Z,1012.41
2022-08-23T03:43:38.172Z,1012.44
2022-08-23T03:44:38.164Z,1012.49
2022-08-23T03:45:38.184Z,1012.49
2022-08-23T03:46:38.129Z,1012.51
2022-08-23T03:47:38.415Z,1012.48
2022-08-23T03:48:38.114Z,1012.50
2022-08-23T03:49:38.098Z,1012.50
2022-08-23T03:50:38.107Z,1012.49
2022-08-23T03:51:38.166Z,1012.48
2022-08-23T03:52:38.065Z,1012.51
2022-08-23T03:53:38.468Z,1012.49
2022-08-23T03:54:38.041Z,1012.45
2022-08-23T03:55:38.481Z,1012.47
2022-08-23T03:56:38.021Z,1012.48
2022-08-23T03:57:38.008Z,1012.45
2022-08-23T03:58:38.003Z,1012.44
2022-08-23T03:59:37.997Z,1012.42
2022-08-23T04:00:37.974Z,1012.44
2022-08-23T04:01:38.028Z,1012.43
2022-08-23T04:02:37.947Z,1012.45
2022-08-23T04:03:37.937Z,1012.44
2022-08-23T04:04:38.065Z,1012.42
2022-08-23T04:05:37.931Z,1012.43
2022-08-23T04:06:37.917Z,1012.40
2022-08-23T04:07:37.892Z,1012.35
2022-08-23T04:08:37.880Z,1012.36
2022-08-23T04:09:37.868Z,1012.38
2022-08-23T04:10:38.024Z,1012.40
2022-08-23T04:11:37.845Z,1012.36
2022-08-23T04:12:37.838Z,1012.37
2022-08-23T04:13:37.822Z,1012.39
2022-08-23T04:14:37.809Z,1012.40
2022-08-23T04:15:37.827Z,1012.42
2022-08-23T04:16:37.794Z,1012.40
2022-08-23T04:17:37.773Z,1012.39
2022-08-23T04:18:37.766Z,1012.37
2022-08-23T04:19:37.780Z,1012.38
2022-08-23T04:20:37.746Z,1012.36
2022-08-23T04:21:37.731Z,1012.35
2022-08-23T04:22:37.718Z,1012.37
2022-08-23T04:23:37.930Z,1012.34
2022-08-23T04:24:37.699Z,1012.34
2022-08-23T04:25:37.705Z,1012.33
2022-08-23T04:26:37.677Z,1012.35
2022-08-23T04:27:37.712Z,1012.33
2022-08-23T04:28:37.656Z,1012.33
2022-08-23T04:29:37.650Z,1012.35
2022-08-23T04:30:37.657Z,1012.32
2022-08-23T04:31:37.638Z,1012.34
2022-08-23T04:32:37.608Z,1012.38
2022-08-23T04:33:40.362Z,1012.37
2022-08-23T04:34:37.590Z,1012.39
2022-08-23T04:35:37.580Z,1012.37
2022-08-23T04:36:37.587Z,1012.39
2022-08-23T04:37:37.549Z,1012.41
2022-08-23T04:38:37.566Z,1012.38
2022-08-23T04:39:37.530Z,1012.40
2022-08-23T04:40:38.538Z,1012.43
2022-08-23T04:41:37.527Z,1012.41
2022-08-23T04:42:37.501Z,1012.43
2022-08-23T04:43:37.488Z,1012.44
2022-08-23T04:44:37.568Z,1012.43
2022-08-23T04:45:37.463Z,1012.46
2022-08-23T04:46:37.492Z,1012.54
2022-08-23T04:47:37.476Z,1012.55
2022-08-23T04:48:37.431Z,1012.56
2022-08-23T04:49:37.414Z,1012.55
2022-08-23T04:50:37.412Z,1012.55
2022-08-23T04:51:37.409Z,1012.58
2022-08-23T04:52:37.382Z,1012.56
2022-08-23T04:53:37.376Z,1012.64
2022-08-23T04:54:37.378Z,1012.61
2022-08-23T04:55:37.448Z,1012.60
2022-08-23T04:56:37.336Z,1012.63
2022-08-23T04:57:37.322Z,1012.63
2022-08-23T04:58:37.334Z,1012.61
2022-08-23T04:59:37.318Z,1012.62
2022-08-23T05:00:37.377Z,1012.63
2022-08-23T05:01:37.488Z,1012.65
2022-08-23T05:02:37.291Z,1012.67
2022-08-23T05:03:37.258Z,1012.70
2022-08-23T05:04:37.245Z,1012.69
2022-08-23T05:05:37.241Z,1012.69
2022-08-23T05:06:37.241Z,1012.72
2022-08-23T05:07:42.140Z,1012.72
2022-08-23T05:08:38.196Z,1012.73
2022-08-23T05:09:37.187Z,1012.71
2022-08-23T05:10:37.173Z,1012.73
2022-08-23T05:11:37.161Z,1012.77
2022-08-23T05:12:37.401Z,1012.80
2022-08-23T05:13:37.183Z,1012.82
2022-08-23T05:14:37.129Z,1012.81
2022-08-23T05:15:37.119Z,1012.79
2022-08-23T05:16:37.108Z,1012.75
2022-08-23T05:17:37.139Z,1012.79
2022-08-23T05:18:37.568Z,1012.76
2022-08-23T05:19:37.514Z,1012.79
2022-08-23T05:20:38.059Z,1012.82
2022-08-23T05:21:37.053Z,1012.81
2022-08-23T05:22:37.059Z,1012.78
2022-08-23T05:23:37.050Z,1012.79
2022-08-23T05:24:37.021Z,1012.79
2022-08-23T05:25:37.003Z,1012.79
2022-08-23T05:26:36.993Z,1012.77
2022-08-23T05:27:37.000Z,1012.77
2022-08-23T05:28:36.977Z,1012.75
2022-08-23T05:29:37.009Z,1012.80
2022-08-23T05:30:36.964Z,1012.76
2022-08-23T05:31:36.960Z,1012.77
2022-08-23T05:32:36.926Z,1012.77
2022-08-23T05:33:36.913Z,1012.78
2022-08-23T05:34:36.907Z,1012.74
2022-08-23T05:35:37.049Z,1012.81
2022-08-23T05:36:36.908Z,1012.79
2022-08-23T05:37:36.891Z,1012.79
2022-08-23T05:38:36.862Z,1012.84
2022-08-23T05:39:37.400Z,1012.79
2022-08-23T05:40:36.833Z,1012.83
2022-08-23T05:41:37.731Z,1012.85
2022-08-23T05:42:36.846Z,1012.83
2022-08-23T05:43:36.823Z,1012.83
2022-08-23T05:44:36.939Z,1012.81
2022-08-23T05:45:36.780Z,1012.82
2022-08-23T05:46:36.770Z,1012.80
2022-08-23T05:47:36.755Z,1012.79
2022-08-23T05:48:36.769Z,1012.80
2022-08-23T05:49:36.733Z,1012.79
2022-08-23T05:50:36.726Z,1012.78
2022-08-23T05:51:36.735Z,1012.82
2022-08-23T05:52:37.105Z,1012.76
2022-08-23T05:53:36.688Z,1012.79
2022-08-23T05:54:36.685Z,1012.76
2022-08-23T05:55:36.683Z,1012.79
2022-08-23T05:56:36.665Z,1012.79
2022-08-23T05:57:36.649Z,1012.77
2022-08-23T05:58:36.657Z,1012.77
2022-08-23T05:59:36.621Z,1012.76
2022-08-23T06:00:37.411Z,1012.79
2022-08-23T06:01:36.599Z,1012.80
2022-08-23T06:02:36.593Z,1012.82
2022-08-23T06:03:36.596Z,1012.79
2022-08-23T06:04:36.569Z,1012.83
2022-08-23T06:05:37.051Z,1012.88
2022-08-23T06:06:37.250Z,1012.87
2022-08-23T06:07:36.532Z,1012.91
2022-08-23T06:08:36.545Z,1012.99
2022-08-23T06:09:36.518Z,1012.97
2022-08-23T06:10:39.343Z,1012.97
2022-08-23T06:11:37.487Z,1013.01
2022-08-23T06:12:36.482Z,1013.01
2022-08-23T06:13:36.481Z,1013.03
2022-08-23T06:14:36.555Z,1013.01
2022-08-23T06:15:36.445Z,1013.00
2022-08-23T06:16:36.440Z,1013.04
2022-08-23T06:17:36.422Z,1013.05
2022-08-23T06:18:36.430Z,1013.10
2022-08-23T06:19:36.416Z,1013.09
2022-08-23T06:20:36.447Z,1013.02
2022-08-23T06:21:36.375Z,1013.04
2022-08-23T06:22:36.363Z,1013.02
2022-08-23T06:23:36.379Z,1013.01
2022-08-23T06:24:36.346Z,1013.05
2022-08-23T06:25:36.334Z,1013.00
2022-08-23T06:26:37.022Z,1013.04
2022-08-23T06:27:36.306Z,1013.02
2022-08-23T06:28:36.389Z,1013.03
2022-08-23T06:29:37.289Z,1013.05
2022-08-23T06:30:39.617Z,1013.04
2022-08-23T06:31:36.271Z,1013.01
2022-08-23T06:32:36.314Z,1012.95
2022-08-23T06:33:36.312Z,1013.04
2022-08-23T06:34:36.248Z,1013.09
2022-08-23T06:35:38.643Z,1013.02
2022-08-23T06:36:36.228Z,1013.00
2022-08-23T06:37:37.064Z,1013.04
2022-08-23T06:38:36.207Z,1013.05
2022-08-23T06:39:37.631Z,1013.09
2022-08-23T06:40:36.164Z,1013.07
2022-08-23T06:41:36.209Z,1013.08
2022-08-23T06:42:38.808Z,1013.07
2022-08-23T06:43:37.341Z,1013.05
2022-08-23T06:44:36.142Z,1013.07
2022-08-23T06:45:36.107Z,1013.06
2022-08-23T06:46:36.147Z,1013.09
2022-08-23T06:47:36.091Z,1013.08
2022-08-23T06:48:36.094Z,1013.09
2022-08-23T06:49:36.065Z,1013.11
2022-08-23T06:50:36.055Z,1013.08
2022-08-23T06:51:36.044Z,1013.15
2022-08-23T06:52:36.052Z,1013.17
2022-08-23T06:53:36.027Z,1013.15
2022-08-23T06:54:36.043Z,1013.14
2022-08-23T06:55:35.994Z,1013.17
2022-08-23T06:56:36.094Z,1013.21
2022-08-23T06:57:35.975Z,1013.19
2022-08-23T06:58:35.968Z,1013.17
2022-08-23T06:59:35.973Z,1013.19
2022-08-23T07:00:36.057Z,1013.15
2022-08-23T07:01:48.817Z,1013.15
2022-08-23T07:02:36.973Z,1013.14
2022-08-23T07:03:36.606Z,1013.16
2022-08-23T07:04:35.939Z,1013.12
2022-08-23T07:05:35.885Z,1013.19
2022-08-23T07:06:35.879Z,1013.17
2022-08-23T07:07:39.789Z,1013.17
2022-08-23T07:08:36.860Z,1013.14
2022-08-23T07:09:35.847Z,1013.16
2022-08-23T07:10:35.850Z,1013.18
2022-08-23T07:11:36.576Z,1013.15
2022-08-23T07:12:35.821Z,1013.10
2022-08-23T07:13:35.821Z,1013.14
2022-08-23T07:14:35.785Z,1013.10
2022-08-23T07:15:35.876Z,1013.13
2022-08-23T07:16:35.828Z,1013.11
2022-08-23T07:17:36.534Z,1013.08
2022-08-23T07:18:35.755Z,1013.07
2022-08-23T07:19:35.753Z,1013.13
2022-08-23T07:20:35.737Z,1013.10
2022-08-23T07:21:35.708Z,1013.09
2022-08-23T07:22:35.703Z,1013.07
2022-08-23T07:23:35.685Z,1013.09
2022-08-23T07:24:35.679Z,1013.07
2022-08-23T07:25:35.683Z,1013.09
2022-08-23T07:26:35.649Z,1013.10
2022-08-23T07:27:35.681Z,1013.11
2022-08-23T07:28:35.783Z,1013.09
2022-08-23T07:29:35.622Z,1013.15
2022-08-23T07:30:35.632Z,1013.13
2022-08-23T07:31:35.677Z,1013.09
2022-08-23T07:32:35.941Z,1013.05
2022-08-23T07:33:35.584Z,1013.09
2022-08-23T07:34:35.686Z,1013.09
2022-08-23T07:35:40.048Z,1013.09
2022-08-23T07:36:35.986Z,1013.09
2022-08-23T07:37:35.531Z,1013.13
2022-08-23T07:38:35.519Z,1013.20
2022-08-23T07:39:35.519Z,1013.16
2022-08-23T07:40:39.048Z,1013.19
2022-08-23T07:41:36.494Z,1013.17
2022-08-23T07:42:35.480Z,1013.24
2022-08-23T07:43:35.467Z,1013.19
2022-08-23T07:44:35.455Z,1013.17
2022-08-23T07:45:35.461Z,1013.18
2022-08-23T07:46:35.490Z,1013.18
2022-08-23T07:47:35.419Z,1013.18
2022-08-23T07:48:53.072Z,1013.17
2022-08-23T07:49:36.441Z,1013.18
2022-08-23T07:50:35.388Z,1013.16
2022-08-23T07:51:35.376Z,1013.21
2022-08-23T07:52:35.376Z,1013.26
2022-08-23T07:53:37.291Z,1013.22
2022-08-23T07:54:35.357Z,1013.21
2022-08-23T07:55:35.348Z,1013.29
2022-08-23T07:56:35.319Z,1013.27
2022-08-23T07:57:35.324Z,1013.27
2022-08-23T07:58:35.308Z,1013.24
2022-08-23T07:59:35.306Z,1013.24
2022-08-23T08:00:36.093Z,1013.24
2022-08-23T08:01:35.382Z,1013.22
2022-08-23T08:02:35.403Z,1013.24
2022-08-23T08:03:35.260Z,1013.22
2022-08-23T08:04:35.244Z,1013.20
2022-08-23T08:05:35.223Z,1013.26
2022-08-23T08:06:35.502Z,1013.27
2022-08-23T08:07:35.581Z,1013.29
2022-08-23T08:08:35.194Z,1013.31
2022-08-23T08:09:35.177Z,1013.29
2022-08-23T08:10:35.165Z,1013.29
2022-08-23T08:11:35.799Z,1013.29
2022-08-23T08:12:35.146Z,1013.28
2022-08-23T08:13:35.142Z,1013.27
2022-08-23T08:14:37.160Z,1013.31
2022-08-23T08:15:35.114Z,1013.28
2022-08-23T08:16:35.156Z,1013.31
2022-08-23T08:17:35.541Z,1013.32
2022-08-23T08:18:35.082Z,1013.28
2022-08-23T08:19:35.089Z,1013.32
2022-08-23T08:20:35.057Z,1013.26
2022-08-23T08:21:35.095Z,1013.33
2022-08-23T08:22:35.047Z,1013.36
2022-08-23T08:23:35.042Z,1013.32
2022-08-23T08:24:35.039Z,1013.36
2022-08-23T08:25:34.999Z,1013.32
2022-08-23T08:26:34.986Z,1013.33
2022-08-23T08:27:35.168Z,1013.35
2022-08-23T08:28:34.990Z,1013.38
2022-08-23T08:29:34.966Z,1013.29
2022-08-23T08:30:34.944Z,1013.31
2022-08-23T08:31:35.039Z,1013.33
2022-08-23T08:32:34.925Z,1013.30
2022-08-23T08:33:34.928Z,1013.31
2022-08-23T08:34:34.908Z,1013.31
2022-08-23T08:35:34.892Z,1013.35
2022-08-23T08:36:34.880Z,1013.33
2022-08-23T08:37:34.878Z,1013.35
2022-08-23T08:38:36.771Z,1013.29
2022-08-23T08:39:34.848Z,1013.32
2022-08-23T08:40:35.922Z,1013.32
2022-08-23T08:41:34.845Z,1013.32
2022-08-23T08:42:34.813Z,1013.31
2022-08-23T08:43:34.823Z,1013.34
2022-08-23T08:44:34.790Z,1013.34
2022-08-23T08:45:34.807Z,1013.32
2022-08-23T08:46:34.819Z,1013.36
2022-08-23T08:47:34.782Z,1013.33
2022-08-23T08:48:34.752Z,1013.40
2022-08-23T08:49:34.738Z,1013.38
2022-08-23T08:50:34.730Z,1013.34
2022-08-23T08:51:35.208Z,1013.35
2022-08-23T08:52:34.730Z,1013.37
2022-08-23T08:53:34.691Z,1013.35
2022-08-23T08:54:34.684Z,1013.40
2022-08-23T08:55:34.751Z,1013.36
2022-08-23T08:56:34.681Z,1013.39
2022-08-23T08:57:35.573Z,1013.42
2022-08-23T08:58:34.640Z,1013.39
2022-08-23T08:59:34.637Z,1013.38
2022-08-23T09:00:34.617Z,1013.40
2022-08-23T09:01:34.689Z,1013.39
2022-08-23T09:02:34.861Z,1013.38
2022-08-23T09:03:34.678Z,1013.32
2022-08-23T09:04:34.577Z,1013.33
2022-08-23T09:05:34.590Z,1013.38
2022-08-23T09:06:34.549Z,1013.33
2022-08-23T09:07:34.543Z,1013.34
2022-08-23T09:08:35.253Z,1013.39
2022-08-23T09:09:34.519Z,1013.29
2022-08-23T09:10:34.529Z,1013.34
2022-08-23T09:11:34.497Z,1013.29
2022-08-23T09:12:34.577Z,1013.33
2022-08-23T09:13:34.474Z,1013.39
2022-08-23T09:14:34.473Z,1013.40
2022-08-23T09:15:34.572Z,1013.41
2022-08-23T09:16:34.456Z,1013.47
2022-08-23T09:17:34.438Z,1013.41
2022-08-23T09:18:34.421Z,1013.43
2022-08-23T09:19:34.412Z,1013.40
2022-08-23T09:20:34.883Z,1013.40
2022-08-23T09:21:34.387Z,1013.38
2022-08-23T09:22:34.374Z,1013.42
2022-08-23T09:23:34.375Z,1013.40
2022-08-23T09:24:34.362Z,1013.37
2022-08-23T09:25:35.133Z,1013.38
2022-08-23T09:26:34.352Z,1013.39
2022-08-23T09:27:34.324Z,1013.37
2022-08-23T09:28:34.310Z,1013.32
2022-08-23T09:29:34.310Z,1013.32
2022-08-23T09:30:34.288Z,1013.34
2022-08-23T09:31:36.031Z,1013.30
2022-08-23T09:32:34.267Z,1013.36
2022-08-23T09:33:34.259Z,1013.36
2022-08-23T09:34:43.656Z,1013.34
2022-08-23T09:35:34.237Z,1013.30
2022-08-23T09:36:34.240Z,1013.36
2022-08-23T09:37:34.218Z,1013.37
2022-08-23T09:38:34.204Z,1013.38
2022-08-23T09:39:34.186Z,1013.33
2022-08-23T09:40:34.206Z,1013.39
2022-08-23T09:41:34.175Z,1013.40
2022-08-23T09:42:34.269Z,1013.40
2022-08-23T09:43:34.184Z,1013.40
2022-08-23T09:44:34.138Z,1013.44
2022-08-23T09:45:35.676Z,1013.42
2022-08-23T09:46:34.195Z,1013.45
2022-08-23T09:47:34.106Z,1013.50
2022-08-23T09:48:34.097Z,1013.42
2022-08-23T09:49:34.085Z,1013.43
2022-08-23T09:50:34.071Z,1013.41
2022-08-23T09:51:35.146Z,1013.47
2022-08-23T09:52:34.046Z,1013.43
2022-08-23T09:53:34.047Z,1013.46
2022-08-23T09:54:35.046Z,1013.44
2022-08-23T09:55:34.022Z,1013.43
2022-08-23T09:56:34.004Z,1013.46
2022-08-23T09:57:33.996Z,1013.46
2022-08-23T09:58:34.004Z,1013.43
2022-08-23T09:59:33.983Z,1013.41
2022-08-23T10:00:33.967Z,1013.42
2022-08-23T10:01:38.731Z,1013.41
2022-08-23T10:02:34.975Z,1013.45
2022-08-23T10:03:33.929Z,1013.44
2022-08-23T10:04:33.961Z,1013.43
2022-08-23T10:05:33.947Z,1013.39
2022-08-23T10:06:33.897Z,1013.41
2022-08-23T10:07:33.907Z,1013.41
2022-08-23T10:08:33.878Z,1013.43
2022-08-23T10:09:33.868Z,1013.41
2022-08-23T10:10:33.872Z,1013.39
2022-08-23T10:11:33.862Z,1013.38
2022-08-23T10:12:33.833Z,1013.37
2022-08-23T10:13:33.820Z,1013.37
2022-08-23T10:14:33.993Z,1013.39
2022-08-23T10:15:36.189Z,1013.36
2022-08-23T10:16:33.968Z,1013.36
2022-08-23T10:17:33.778Z,1013.36
2022-08-23T10:18:33.765Z,1013.33
2022-08-23T10:19:33.758Z,1013.30
2022-08-23T10:20:33.836Z,1013.33
2022-08-23T10:21:33.772Z,1013.32
2022-08-23T10:22:33.730Z,1013.33
2022-08-23T10:23:33.711Z,1013.37
2022-08-23T10:24:33.704Z,1013.35
2022-08-23T10:25:33.697Z,1013.34
2022-08-23T10:26:33.694Z,1013.39
2022-08-23T10:27:33.668Z,1013.33
2022-08-23T10:28:36.895Z,1013.36
2022-08-23T10:29:34.652Z,1013.34
2022-08-23T10:30:33.636Z,1013.32
2022-08-23T10:31:33.692Z,1013.36
2022-08-23T10:32:33.659Z,1013.35
2022-08-23T10:33:33.658Z,1013.32
2022-08-23T10:34:33.611Z,1013.31
2022-08-23T10:35:33.630Z,1013.35
2022-08-23T10:36:33.623Z,1013.31
2022-08-23T10:37:33.624Z,1013.39
2022-08-23T10:38:33.546Z,1013.35
2022-08-23T10:39:33.723Z,1013.34
2022-08-23T10:40:33.715Z,1013.34
2022-08-23T10:41:33.539Z,1013.30
2022-08-23T10:42:33.526Z,1013.35
2022-08-23T10:43:33.494Z,1013.33
2022-08-23T10:44:33.497Z,1013.28
2022-08-23T10:45:33.475Z,1013.36
2022-08-23T10:46:33.532Z,1013.37
2022-08-23T10:47:33.464Z,1013.35
2022-08-23T10:48:33.475Z,1013.33
2022-08-23T10:49:33.430Z,1013.34
2022-08-23T10:50:33.412Z,1013.34
2022-08-23T10:51:33.414Z,1013.38
2022-08-23T10:52:33.730Z,1013.38
2022-08-23T10:53:33.382Z,1013.35
2022-08-23T10:54:33.391Z,1013.37
2022-08-23T10:55:33.372Z,1013.36
2022-08-23T10:56:33.394Z,1013.31
2022-08-23T10:57:33.375Z,1013.30
2022-08-23T10:58:33.363Z,1013.27
2022-08-23T10:59:33.421Z,1013.31
2022-08-23T11:00:33.338Z,1013.30
2022-08-23T11:01:33.430Z,1013.28
2022-08-23T11:02:33.396Z,1013.36
2022-08-23T11:03:33.338Z,1013.29
2022-08-23T11:04:33.377Z,1013.33
2022-08-23T11:05:33.333Z,1013.38
2022-08-23T11:06:33.374Z,1013.37
2022-08-23T11:07:33.379Z,1013.33
2022-08-23T11:08:33.230Z,1013.34
2022-08-23T11:09:33.578Z,1013.35
2022-08-23T11:10:33.200Z,1013.36
2022-08-23T11:11:33.190Z,1013.37
2022-08-23T11:12:33.186Z,1013.39
2022-08-23T11:13:33.180Z,1013.39
2022-08-23T11:14:33.171Z,1013.42
2022-08-23T11:15:33.190Z,1013.37
2022-08-23T11:16:33.126Z,1013.46
2022-08-23T11:17:33.121Z,1013.44
2022-08-23T11:18:33.422Z,1013.34
2022-08-23T11:19:33.116Z,1013.34
2022-08-23T11:20:33.102Z,1013.39
2022-08-23T11:21:33.074Z,1013.44
2022-08-23T11:22:33.067Z,1013.31
2022-08-23T11:23:33.070Z,1013.36
2022-08-23T11:24:33.441Z,1013.39
2022-08-23T11:25:33.030Z,1013.46
2022-08-23T11:26:33.016Z,1013.46
2022-08-23T11:27:33.064Z,1013.40
2022-08-23T11:28:32.999Z,1013.39
2022-08-23T11:29:33.011Z,1013.35
2022-08-23T11:30:33.074Z,1013.38
2022-08-23T11:31:32.967Z,1013.36
2022-08-23T11:32:32.954Z,1013.31
2022-08-23T11:33:32.947Z,1013.32
2022-08-23T11:34:32.928Z,1013.41
2022-08-23T11:35:32.946Z,1013.39
2022-08-23T11:36:32.920Z,1013.37
2022-08-23T11:37:32.903Z,1013.38
2022-08-23T11:38:32.884Z,1013.42
2022-08-23T11:39:32.945Z,1013.37
2022-08-23T11:40:32.908Z,1013.43
2022-08-23T11:41:33.068Z,1013.41
2022-08-23T11:42:32.846Z,1013.38
2022-08-23T11:43:32.839Z,1013.34
2022-08-23T11:44:32.820Z,1013.37
2022-08-23T11:45:33.247Z,1013.38
2022-08-23T11:46:32.864Z,1013.42
2022-08-23T11:47:32.807Z,1013.44
2022-08-23T11:48:32.794Z,1013.43
2022-08-23T11:49:32.769Z,1013.43
2022-08-23T11:50:32.758Z,1013.45
2022-08-23T11:51:32.744Z,1013.46
2022-08-23T11:52:32.740Z,1013.53
2022-08-23T11:53:32.766Z,1013.55
2022-08-23T11:54:32.715Z,1013.53
2022-08-23T11:55:32.729Z,1013.70
2022-08-23T11:56:32.689Z,1013.61
2022-08-23T11:57:32.689Z,1013.69
2022-08-23T11:58:32.911Z,1013.61
2022-08-23T11:59:32.664Z,1013.66
2022-08-23T12:00:32.647Z,1013.73
2022-08-23T12:01:32.635Z,1013.71
2022-08-23T12:02:32.969Z,1013.78
2022-08-23T12:03:32.736Z,1013.88
2022-08-23T12:04:32.599Z,1014.04
2022-08-23T12:05:32.746Z,1014.05